Time;durP1;ratioP1;P1;durP2;ratioP2;P2;SDS_P1;SDS_P2;PMS_P1;PMS_P2;Temp;Humidity;BMP_temperature;BMP_pressure;BME280_temperature;BME280_humidity;BME280_pressure;Samples;Min_cycle;Max_cycle;Signal;HPM_P1;HPM_P2
2022/01/27 00:00:38;;;;;;;26.67;15.67;;;;;;;1.38;100.00;100335.69;5105691;28;20274;-83
2022/01/27 00:03:18;;;;;;;28.47;15.67;;;;;;;1.56;100.00;100339.03;5094983;28;20302;-83
2022/01/27 00:05:52;;;;;;;27.77;14.80;;;;;;;1.59;100.00;100337.25;5093808;28;20207;-83
2022/01/27 00:08:26;;;;;;;26.43;15.27;;;;;;;1.41;100.00;100333.06;5087975;28;20221;-82
2022/01/27 00:10:58;;;;;;;23.97;14.57;;;;;;;1.39;100.00;100332.19;5092261;28;20231;-83
2022/01/27 00:13:31;;;;;;;28.67;15.53;;;;;;;1.40;100.00;100320.88;5093757;28;20290;-83
2022/01/27 00:16:14;;;;;;;27.43;14.77;;;;;;;1.46;100.00;100329.56;5095836;28;20188;-83
2022/01/27 00:18:45;;;;;;;27.23;15.17;;;;;;;1.40;100.00;100315.66;5090644;28;20196;-83
2022/01/27 00:21:18;;;;;;;24.53;14.73;;;;;;;1.59;100.00;100316.38;5090242;28;20258;-83
2022/01/27 00:23:47;;;;;;;27.07;16.47;;;;;;;1.46;100.00;100322.59;5087760;28;20203;-83
2022/01/27 00:26:23;;;;;;;29.37;16.40;;;;;;;1.43;100.00;100319.97;5089804;28;20192;-83
2022/01/27 00:28:56;;;;;;;27.43;15.27;;;;;;;1.40;100.00;100325.25;5089498;28;20264;-83
2022/01/27 00:31:25;;;;;;;28.13;15.00;;;;;;;1.39;100.00;100319.16;5095439;28;20194;-83
2022/01/27 00:33:54;;;;;;;25.50;14.23;;;;;;;1.52;100.00;100314.69;5082611;28;20200;-83
2022/01/27 00:36:25;;;;;;;26.33;14.60;;;;;;;1.49;100.00;100317.34;5097052;28;20199;-83
2022/01/27 00:38:53;;;;;;;26.67;14.77;;;;;;;1.63;100.00;100328.50;5094377;28;20267;-83
2022/01/27 00:41:22;;;;;;;26.83;15.37;;;;;;;1.34;100.00;100320.06;5085147;28;20196;-83
2022/01/27 00:43:51;;;;;;;22.63;11.93;;;;;;;1.52;100.00;100317.28;5094487;28;20188;-83
2022/01/27 00:46:20;;;;;;;26.57;14.80;;;;;;;1.47;100.00;100313.00;5093987;28;20231;-83
2022/01/27 00:48:49;;;;;;;23.13;12.03;;;;;;;1.47;100.00;100310.41;5090622;28;20215;-83
2022/01/27 00:51:21;;;;;;;22.13;12.77;;;;;;;1.40;100.00;100304.34;5042581;28;20191;-82
2022/01/27 00:54:02;;;;;;;26.30;14.40;;;;;;;1.26;100.00;100312.31;5089936;28;20205;-82
2022/01/27 00:56:38;;;;;;;27.47;15.63;;;;;;;1.23;100.00;100312.31;5085125;28;20252;-83
2022/01/27 00:59:23;;;;;;;26.30;15.07;;;;;;;1.25;100.00;100307.94;5091178;28;20195;-83
2022/01/27 01:02:00;;;;;;;32.57;17.90;;;;;;;1.18;100.00;100306.28;5063266;28;20226;-83
2022/01/27 01:04:33;;;;;;;31.10;15.77;;;;;;;1.23;100.00;100301.88;5093961;28;20206;-84
2022/01/27 01:07:03;;;;;;;30.53;18.00;;;;;;;1.12;100.00;100308.91;5090040;28;20199;-83
2022/01/27 01:15:28;;;;;;;31.67;17.60;;;;;;;1.12;100.00;100303.69;5012770;28;20202;-83
2022/01/27 01:18:07;;;;;;;33.87;16.63;;;;;;;1.07;100.00;100302.88;5062205;28;20195;-83
2022/01/27 01:20:59;;;;;;;35.40;18.40;;;;;;;0.96;100.00;100294.25;5091758;28;20203;-83
2022/01/27 01:32:07;;;;;;;33.30;18.37;;;;;;;0.95;100.00;100274.25;5094667;28;20192;-83
2022/01/27 01:34:43;;;;;;;30.37;16.40;;;;;;;0.99;100.00;100271.63;5092877;28;20673;-83
2022/01/27 01:37:12;;;;;;;32.27;16.00;;;;;;;0.99;100.00;100260.34;5047766;28;20189;-83
2022/01/27 01:39:42;;;;;;;29.90;16.50;;;;;;;1.00;100.00;100267.28;5048206;28;20205;-83
2022/01/27 01:42:14;;;;;;;34.20;16.07;;;;;;;1.01;100.00;100267.25;5044862;28;20189;-83
2022/01/27 01:44:46;;;;;;;30.93;17.20;;;;;;;0.97;100.00;100268.19;5046650;28;20190;-83
2022/01/27 01:47:18;;;;;;;32.87;16.87;;;;;;;0.97;100.00;100268.19;5047132;28;20240;-83
2022/01/27 01:49:47;;;;;;;34.13;16.60;;;;;;;1.01;100.00;100249.00;5047364;28;20217;-83
2022/01/27 01:52:18;;;;;;;30.87;16.53;;;;;;;1.00;100.00;100244.66;5049333;28;20194;-83
2022/01/27 01:54:46;;;;;;;32.53;17.93;;;;;;;0.95;100.00;100249.03;5047452;28;20243;-83
2022/01/27 01:57:16;;;;;;;33.00;16.47;;;;;;;0.98;100.00;100229.91;5052076;28;20748;-83
2022/01/27 01:59:45;;;;;;;33.37;18.03;;;;;;;0.92;100.00;100235.16;5047515;28;20204;-83
2022/01/27 02:02:15;;;;;;;36.27;18.23;;;;;;;0.94;100.00;100230.78;5047807;28;20266;-83
2022/01/27 02:04:44;;;;;;;32.30;18.87;;;;;;;0.84;100.00;100224.78;5053790;28;20201;-83
2022/01/27 02:07:30;;;;;;;32.80;18.43;;;;;;;0.81;100.00;100232.63;5054551;28;20193;-83
2022/01/27 02:10:16;;;;;;;32.17;18.33;;;;;;;0.81;100.00;100230.03;5072581;28;20219;-83
2022/01/27 02:18:18;;;;;;;33.30;17.90;;;;;;;0.78;100.00;100228.31;5074604;28;20195;-83
2022/01/27 02:20:48;;;;;;;33.13;18.20;;;;;;;0.83;100.00;100228.28;5064379;28;20247;-82
2022/01/27 02:23:17;;;;;;;40.87;19.10;;;;;;;0.80;100.00;100237.00;5072549;28;20270;-82
2022/01/27 02:25:46;;;;;;;37.13;19.37;;;;;;;0.82;100.00;100226.53;5066793;28;20227;-83
2022/01/27 02:28:15;;;;;;;35.70;20.00;;;;;;;0.72;100.00;100219.66;5077927;28;20183;-83
2022/01/27 02:30:43;;;;;;;42.63;19.93;;;;;;;0.76;100.00;100222.22;5096798;28;20227;-82
2022/01/27 02:33:11;;;;;;;36.23;18.33;;;;;;;0.79;100.00;100229.19;5088283;28;20191;-83
2022/01/27 02:35:40;;;;;;;37.17;19.53;;;;;;;0.80;100.00;100220.47;5096740;28;20200;-83
2022/01/27 02:38:10;;;;;;;37.97;19.00;;;;;;;0.79;100.00;100237.00;5092713;28;20207;-82
2022/01/27 02:40:44;;;;;;;40.27;21.07;;;;;;;0.77;100.00;100238.72;5093208;28;20312;-83
2022/01/27 02:43:13;;;;;;;39.17;19.37;;;;;;;0.82;100.00;100229.16;5094314;28;20191;-83
2022/01/27 02:45:47;;;;;;;35.10;16.30;;;;;;;0.88;100.00;100236.94;5099258;28;20196;-83
2022/01/27 02:48:15;;;;;;;40.13;19.63;;;;;;;0.77;100.00;100230.91;5096389;28;20195;-83
2022/01/27 02:50:44;;;;;;;38.80;18.80;;;;;;;0.77;100.00;100234.41;5096181;28;20224;-82
2022/01/27 02:53:14;;;;;;;40.60;18.30;;;;;;;0.90;100.00;100224.75;5071600;28;20205;-83
2022/01/27 02:55:43;;;;;;;39.77;20.13;;;;;;;0.79;100.00;100216.16;5067453;28;20539;-83
2022/01/27 02:58:12;;;;;;;41.27;18.77;;;;;;;0.80;100.00;100217.88;5070647;28;20194;-83
2022/01/27 03:00:41;;;;;;;42.10;20.30;;;;;;;0.78;100.00;100214.41;5063421;28;20246;-83
2022/01/27 03:03:09;;;;;;;36.50;17.20;;;;;;;0.95;100.00;100225.56;5069163;28;20749;-83
2022/01/27 03:05:38;;;;;;;36.20;17.83;;;;;;;0.93;100.00;100227.31;5074232;28;20284;-83
2022/01/27 03:08:06;;;;;;;45.90;19.87;;;;;;;0.82;100.00;100216.13;5068737;28;20208;-83
2022/01/27 03:10:44;;;;;;;38.83;19.00;;;;;;;0.82;100.00;100216.97;5075199;28;20211;-83
2022/01/27 03:13:12;;;;;;;36.00;17.50;;;;;;;0.90;100.00;100218.66;5072679;28;20188;-83
2022/01/27 03:15:41;;;;;;;32.53;15.77;;;;;;;0.91;100.00;100212.56;5067084;28;20279;-84
2022/01/27 03:18:13;;;;;;;33.37;15.43;;;;;;;0.85;100.00;100203.91;5071611;28;20235;-83
2022/01/27 03:20:42;;;;;;;38.83;18.13;;;;;;;0.72;100.00;100199.66;5069154;28;20257;-83
2022/01/27 03:23:10;;;;;;;34.87;15.90;;;;;;;0.83;100.00;100204.81;5070659;28;20185;-83
2022/01/27 03:25:41;;;;;;;37.43;19.57;;;;;;;0.73;100.00;100195.31;5063832;28;20204;-83
2022/01/27 03:28:11;;;;;;;36.70;16.37;;;;;;;0.71;100.00;100191.88;5071189;28;20199;-83
2022/01/27 03:30:39;;;;;;;38.70;16.93;;;;;;;0.76;100.00;100192.69;5075286;28;20215;-83
2022/01/27 03:33:08;;;;;;;32.40;14.83;;;;;;;0.79;100.00;100192.69;5091704;28;20202;-83
2022/01/27 03:35:37;;;;;;;37.77;16.97;;;;;;;0.73;100.00;100195.31;5095521;28;20207;-83
2022/01/27 03:38:05;;;;;;;37.20;15.63;;;;;;;0.84;100.00;100198.72;5090191;28;20184;-83
2022/01/27 03:40:34;;;;;;;34.27;15.13;;;;;;;0.80;100.00;100199.63;5089490;28;20491;-83
2022/01/27 03:43:06;;;;;;;32.70;15.03;;;;;;;0.86;100.00;100195.19;5088223;28;20208;-83
2022/01/27 03:45:34;;;;;;;36.57;15.87;;;;;;;0.73;100.00;100204.00;5094416;28;20248;-82
2022/01/27 03:48:07;;;;;;;37.47;15.87;;;;;;;0.68;100.00;100187.53;5092029;28;20200;-82
2022/01/27 03:50:36;;;;;;;37.47;15.23;;;;;;;0.70;100.00;100179.72;5095262;28;20216;-83
2022/01/27 03:53:05;;;;;;;33.70;14.90;;;;;;;0.67;100.00;100183.19;5085808;28;20248;-83
2022/01/27 03:55:35;;;;;;;43.10;18.97;;;;;;;0.61;100.00;100162.41;5094648;28;20200;-82
2022/01/27 03:58:05;;;;;;;41.63;17.60;;;;;;;0.64;100.00;100144.13;5093193;28;20192;-83
2022/01/27 04:00:34;;;;;;;42.67;18.97;;;;;;;0.59;100.00;100143.31;5089576;28;20199;-83
2022/01/27 04:03:05;;;;;;;43.93;17.30;;;;;;;0.62;100.00;100163.25;5068708;28;20212;-83
2022/01/27 04:05:37;;;;;;;48.43;19.83;;;;;;;0.59;100.00;100160.69;5066954;28;20246;-84
2022/01/27 04:08:08;;;;;;;44.03;17.57;;;;;;;0.66;100.00;100167.56;5070779;28;20196;-83
2022/01/27 04:10:40;;;;;;;48.87;18.23;;;;;;;0.73;100.00;100149.25;5064718;28;20224;-83
2022/01/27 04:13:11;;;;;;;46.00;19.80;;;;;;;0.60;100.00;100173.69;5066666;28;20188;-83
2022/01/27 04:15:45;;;;;;;48.00;18.80;;;;;;;0.66;100.00;100154.53;5067904;28;20202;-83
2022/01/27 04:18:16;;;;;;;49.73;23.73;;;;;;;0.51;100.00;100139.88;5065580;28;20204;-83
2022/01/27 04:20:44;;;;;;;48.87;20.57;;;;;;;0.55;100.00;100147.66;5073314;28;20199;-83
2022/01/27 04:23:13;;;;;;;47.57;19.43;;;;;;;0.62;100.00;100160.66;5050035;28;20267;-83
2022/01/27 04:25:41;;;;;;;41.43;17.47;;;;;;;0.65;100.00;100161.47;5052786;28;20532;-83
2022/01/27 04:28:20;;;;;;;39.70;16.57;;;;;;;0.71;100.00;100171.00;5051015;28;20197;-83
2022/01/27 04:30:49;;;;;;;47.80;18.23;;;;;;;0.83;100.00;100194.38;5048368;28;20271;-83
2022/01/27 04:33:18;;;;;;;43.17;16.77;;;;;;;0.82;100.00;100190.91;5005625;28;20212;-83
2022/01/27 04:35:49;;;;;;;42.40;16.87;;;;;;;0.74;100.00;100191.84;5049471;28;20193;-82
2022/01/27 04:38:32;;;;;;;41.10;18.10;;;;;;;0.74;100.00;100176.19;5046838;28;20201;-83
2022/01/27 04:41:10;;;;;;;36.23;15.67;;;;;;;0.72;100.00;100171.00;5046829;28;20201;-82
2022/01/27 04:43:46;;;;;;;42.47;17.50;;;;;;;0.63;100.00;100159.78;5048976;28;20193;-83
2022/01/27 04:46:25;;;;;;;42.67;18.03;;;;;;;0.57;100.00;100158.06;5046970;28;20243;-83
2022/01/27 04:48:58;;;;;;;40.17;16.87;;;;;;;0.64;100.00;100159.75;5088951;28;20275;-82
2022/01/27 04:51:27;;;;;;;41.57;17.00;;;;;;;0.66;100.00;100158.00;5090422;28;20219;-83
2022/01/27 04:54:01;;;;;;;42.80;19.13;;;;;;;0.55;100.00;100157.22;5094307;28;20192;-83
2022/01/27 04:56:31;;;;;;;39.03;15.63;;;;;;;0.66;100.00;100163.22;5093242;28;20295;-82
2022/01/27 04:59:05;;;;;;;38.67;15.37;;;;;;;0.63;100.00;100146.75;5088455;28;20646;-82
2022/01/27 05:01:39;;;;;;;39.20;15.87;;;;;;;0.67;100.00;100156.25;5088841;28;20223;-82
2022/01/27 05:04:10;;;;;;;41.73;16.23;;;;;;;0.68;100.00;100164.09;5068877;28;20206;-84
2022/01/27 05:06:39;;;;;;;37.03;15.23;;;;;;;0.68;100.00;100179.72;5093005;28;20211;-83
2022/01/27 05:09:08;;;;;;;35.10;14.63;;;;;;;0.68;100.00;100179.72;5089057;28;20241;-84
2022/01/27 05:11:39;;;;;;;38.33;15.87;;;;;;;0.72;100.00;100180.56;5088175;28;20224;-84
2022/01/27 05:14:14;;;;;;;37.70;13.97;;;;;;;0.84;100.00;100188.28;5087864;28;20253;-84
2022/01/27 05:16:45;;;;;;;37.63;16.47;;;;;;;0.70;100.00;100172.75;5089598;28;20195;-83
2022/01/27 05:19:13;;;;;;;40.13;13.77;;;;;;;0.78;100.00;100170.09;5091535;28;20206;-83
2022/01/27 05:21:42;;;;;;;31.33;13.63;;;;;;;0.81;100.00;100185.69;5085587;28;20203;-84
2022/01/27 05:24:11;;;;;;;37.53;14.30;;;;;;;0.78;100.00;100177.91;5031736;28;20206;-84
2022/01/27 05:26:41;;;;;;;35.00;15.93;;;;;;;0.72;100.00;100170.13;5028766;28;20206;-83
2022/01/27 05:29:11;;;;;;;31.30;13.90;;;;;;;0.75;100.00;100159.66;4981318;28;20217;-83
2022/01/27 05:31:40;;;;;;;34.20;16.77;;;;;;;0.73;100.00;100177.06;5023954;28;20226;-84
2022/01/27 05:34:10;;;;;;;33.33;14.33;;;;;;;0.79;100.00;100164.84;5033630;28;20197;-84
2022/01/27 05:36:38;;;;;;;35.30;17.13;;;;;;;0.69;100.00;100159.72;5033509;28;20700;-84
2022/01/27 05:39:08;;;;;;;32.57;14.10;;;;;;;0.71;100.00;100163.19;5025701;28;20715;-84
2022/01/27 05:41:37;;;;;;;34.33;13.47;;;;;;;0.83;100.00;100158.72;5043463;28;20282;-82
2022/01/27 05:44:06;;;;;;;31.77;12.97;;;;;;;0.87;100.00;100156.97;5089875;28;20202;-84
2022/01/27 05:46:38;;;;;;;30.67;14.57;;;;;;;0.83;100.00;100148.28;5092887;28;20192;-84
2022/01/27 05:49:07;;;;;;;35.00;12.77;;;;;;;0.90;100.00;100151.72;5095692;28;20202;-83
2022/01/27 05:51:35;;;;;;;30.73;13.93;;;;;;;0.81;100.00;100147.47;5088232;28;20265;-83
2022/01/27 05:54:04;;;;;;;34.63;15.63;;;;;;;0.72;100.00;100129.28;5094700;28;20196;-84
2022/01/27 05:56:32;;;;;;;32.43;15.20;;;;;;;0.75;100.00;100125.78;5086455;28;20258;-84
2022/01/27 05:59:00;;;;;;;35.30;14.53;;;;;;;0.75;100.00;100125.78;5058341;28;20200;-84
2022/01/27 06:01:28;;;;;;;30.03;13.27;;;;;;;0.74;100.00;100105.78;5095406;28;20229;-84
2022/01/27 06:04:06;;;;;;;35.63;14.40;;;;;;;0.75;100.00;100110.13;5092465;28;20188;-84
2022/01/27 06:06:35;;;;;;;33.90;14.57;;;;;;;0.72;100.00;100105.81;5056879;28;20244;-83
2022/01/27 06:09:05;;;;;;;31.90;13.77;;;;;;;0.79;100.00;100106.63;5091888;28;20282;-83
2022/01/27 06:11:38;;;;;;;35.03;13.40;;;;;;;0.83;100.00;100090.06;5048898;28;20249;-83
2022/01/27 06:14:07;;;;;;;33.77;14.23;;;;;;;0.77;100.00;100087.50;5051319;28;20200;-84
2022/01/27 06:16:36;;;;;;;39.83;17.53;;;;;;;0.75;100.00;100087.53;5052026;28;20279;-84
2022/01/27 06:19:08;;;;;;;38.27;16.00;;;;;;;0.83;100.00;100084.84;5044546;28;20668;-84
2022/01/27 06:21:36;;;;;;;35.90;15.37;;;;;;;0.76;100.00;100083.19;5048567;28;20227;-84
2022/01/27 06:24:05;;;;;;;33.90;13.93;;;;;;;0.81;100.00;100074.44;5052032;28;20777;-84
2022/01/27 06:26:33;;;;;;;38.93;16.17;;;;;;;0.75;100.00;100068.41;4991337;28;20191;-83
2022/01/27 06:29:01;;;;;;;32.53;15.17;;;;;;;0.75;100.00;100077.09;5007089;28;20295;-84
2022/01/27 06:31:30;;;;;;;34.63;14.87;;;;;;;0.76;100.00;100085.78;5032580;28;20224;-84
2022/01/27 06:33:59;;;;;;;34.50;14.80;;;;;;;0.78;100.00;100066.66;5032720;28;20247;-83
2022/01/27 06:36:29;;;;;;;33.27;15.13;;;;;;;0.78;100.00;100063.19;5035760;28;20202;-84
2022/01/27 06:38:57;;;;;;;35.50;15.30;;;;;;;0.76;100.00;100076.22;5032200;28;20189;-84
2022/01/27 06:41:26;;;;;;;46.07;20.37;;;;;;;0.85;100.00;100050.06;4998051;28;20206;-84
2022/01/27 06:43:56;;;;;;;37.33;16.10;;;;;;;0.85;100.00;100050.06;5035243;28;20710;-84
2022/01/27 06:46:25;;;;;;;46.73;17.53;;;;;;;0.96;100.00;100043.84;5092214;28;20195;-84
2022/01/27 06:48:58;;;;;;;35.03;15.17;;;;;;;0.86;100.00;100045.69;5095350;28;20205;-84
2022/01/27 06:51:29;;;;;;;39.17;15.70;;;;;;;0.94;100.00;100033.44;5090565;28;20230;-83
2022/01/27 06:53:58;;;;;;;42.77;18.23;;;;;;;0.99;100.00;100028.19;5013774;28;20235;-83
2022/01/27 06:56:26;;;;;;;34.57;14.73;;;;;;;0.94;100.00;100030.84;5009798;28;20253;-84
2022/01/27 06:58:55;;;;;;;35.37;15.00;;;;;;;0.97;100.00;100035.19;5011033;28;20277;-84
2022/01/27 07:01:23;;;;;;;39.83;16.60;;;;;;;0.95;100.00;100024.75;5015402;28;20252;-83
2022/01/27 07:03:53;;;;;;;38.13;15.90;;;;;;;1.09;100.00;100015.03;5013257;28;20203;-83
2022/01/27 07:06:26;;;;;;;38.63;16.57;;;;;;;1.00;100.00;100024.72;5015953;28;20253;-82
2022/01/27 07:08:57;;;;;;;33.63;14.57;;;;;;;0.98;100.00;100013.44;5006911;28;20190;-84
2022/01/27 07:11:25;;;;;;;34.57;15.33;;;;;;;0.97;100.00;100033.44;4988230;28;20196;-83
2022/01/27 07:13:55;;;;;;;41.07;15.80;;;;;;;1.06;100.00;100027.22;5044565;28;20204;-84
2022/01/27 07:16:23;;;;;;;32.90;13.87;;;;;;;1.17;100.00;100014.09;5084778;28;20197;-82
2022/01/27 07:18:52;;;;;;;33.57;14.03;;;;;;;0.98;100.00;100003.84;5087415;28;20201;-83
2022/01/27 07:21:20;;;;;;;34.60;14.80;;;;;;;1.09;100.00;99994.16;5096305;28;20181;-82
2022/01/27 07:23:49;;;;;;;36.33;13.87;;;;;;;1.06;100.00;99995.91;5096000;28;20204;-83
2022/01/27 07:26:24;;;;;;;34.13;14.63;;;;;;;0.98;100.00;99997.78;5073057;28;20196;-84
2022/01/27 07:28:53;;;;;;;32.43;13.23;;;;;;;0.96;100.00;99995.16;5072134;28;20589;-84
2022/01/27 07:31:21;;;;;;;35.33;14.23;;;;;;;1.00;100.00;99982.97;5072809;28;20204;-83
2022/01/27 07:33:52;;;;;;;29.97;14.07;;;;;;;1.08;100.00;99982.00;5069264;28;20216;-83
2022/01/27 07:36:21;;;;;;;34.43;13.77;;;;;;;1.11;100.00;99987.16;5039095;28;20199;-83
2022/01/27 07:38:50;;;;;;;35.30;14.23;;;;;;;1.03;100.00;99986.41;5075576;28;20214;-83
2022/01/27 07:41:22;;;;;;;35.53;15.07;;;;;;;1.12;100.00;99988.03;5074513;28;20195;-83
2022/01/27 07:43:51;;;;;;;33.83;13.60;;;;;;;1.14;100.00;99988.88;5075537;28;20188;-84
2022/01/27 07:46:19;;;;;;;31.23;13.83;;;;;;;1.17;100.00;99981.03;5073072;28;20200;-84
2022/01/27 07:48:48;;;;;;;32.20;12.63;;;;;;;1.31;100.00;99978.22;5065387;28;20189;-83
2022/01/27 07:51:17;;;;;;;30.27;13.00;;;;;;;1.33;100.00;99966.88;5070317;28;20192;-83
2022/01/27 07:53:45;;;;;;;29.80;13.20;;;;;;;1.35;100.00;99965.13;5071911;28;20216;-84
2022/01/27 07:56:34;;;;;;;28.43;12.60;;;;;;;1.39;100.00;99973.78;5073023;28;20196;-83
2022/01/27 07:59:02;;;;;;;32.40;13.20;;;;;;;1.43;100.00;99970.22;5072099;28;20258;-83
2022/01/27 08:01:30;;;;;;;26.17;12.70;;;;;;;1.45;100.00;99965.88;5071050;28;20277;-85
2022/01/27 08:03:59;;;;;;;28.13;13.30;;;;;;;1.40;100.00;99968.53;5085127;28;20209;-83
2022/01/27 08:06:27;;;;;;;28.20;12.77;;;;;;;1.49;100.00;99974.50;5090906;28;20195;-83
2022/01/27 08:08:56;;;;;;;29.63;13.10;;;;;;;1.49;100.00;99977.97;5088992;28;20276;-83
2022/01/27 08:11:25;;;;;;;26.87;12.93;;;;;;;1.47;100.00;99982.38;5088818;28;20234;-84
2022/01/27 08:13:55;;;;;;;34.03;13.63;;;;;;;1.46;100.00;99988.47;5092802;28;20215;-84
2022/01/27 08:16:23;;;;;;;30.03;13.17;;;;;;;1.65;100.00;99983.84;5089821;28;20192;-84
2022/01/27 08:18:53;;;;;;;32.40;15.03;;;;;;;1.59;100.00;99990.00;5062875;28;20230;-83
2022/01/27 08:21:21;;;;;;;33.77;13.90;;;;;;;1.52;100.00;99992.72;5093174;28;20194;-85
2022/01/27 08:23:51;;;;;;;30.00;13.50;;;;;;;1.70;100.00;99985.50;5096243;28;20215;-84
2022/01/27 08:26:31;;;;;;;29.00;13.27;;;;;;;1.64;100.00;99983.00;5047731;28;20227;-83
2022/01/27 08:29:10;;;;;;;32.43;14.20;;;;;;;1.83;100.00;99977.47;5051125;28;20268;-83
2022/01/27 08:31:54;;;;;;;29.73;14.17;;;;;;;1.76;100.00;99978.47;5049361;28;20247;-84
2022/01/27 08:34:30;;;;;;;28.23;12.97;;;;;;;1.85;100.00;99970.50;5052387;28;20212;-84
2022/01/27 08:36:59;;;;;;;29.57;14.07;;;;;;;1.83;100.00;99970.50;5052194;28;20360;-83
2022/01/27 08:39:28;;;;;;;32.00;15.43;;;;;;;1.60;100.00;99970.00;5050795;28;20253;-86
2022/01/27 08:41:56;;;;;;;28.07;13.40;;;;;;;1.77;100.00;99957.56;5049266;28;20201;-83
2022/01/27 08:44:26;;;;;;;30.77;14.27;;;;;;;1.84;100.00;99950.50;5071795;28;20643;-84
2022/01/27 08:46:54;;;;;;;30.43;14.80;;;;;;;1.83;100.00;99943.50;5094953;28;20191;-84
2022/01/27 08:49:26;;;;;;;29.97;14.67;;;;;;;1.91;100.00;99944.25;5090193;28;20195;-85
2022/01/27 08:51:57;;;;;;;31.77;15.33;;;;;;;1.92;100.00;99940.75;5095181;28;20199;-83
2022/01/27 08:54:28;;;;;;;30.23;15.00;;;;;;;1.85;100.00;99944.38;5085288;28;20215;-83
2022/01/27 08:56:57;;;;;;;31.07;15.17;;;;;;;1.97;100.00;99938.94;5038521;28;20225;-83
2022/01/27 08:59:27;;;;;;;30.10;14.70;;;;;;;1.98;100.00;99938.06;5089199;28;20191;-82
2022/01/27 09:01:58;;;;;;;35.23;16.17;;;;;;;1.96;100.00;99924.16;5090229;28;20246;-83
2022/01/27 09:04:28;;;;;;;32.57;15.03;;;;;;;1.93;100.00;99926.81;5092679;28;20198;-83
2022/01/27 09:06:56;;;;;;;31.80;15.37;;;;;;;1.95;100.00;99915.47;5090642;28;20199;-83
2022/01/27 09:09:25;;;;;;;32.47;15.70;;;;;;;1.95;100.00;99918.06;5005613;28;20197;-83
2022/01/27 09:11:55;;;;;;;33.50;15.93;;;;;;;2.02;100.00;99918.81;5004967;28;20302;-83
2022/01/27 09:14:28;;;;;;;30.07;15.97;;;;;;;1.94;100.00;99905.91;4977198;28;20222;-83
2022/01/27 09:16:57;;;;;;;32.77;15.63;;;;;;;1.98;100.00;99914.53;5006830;28;20253;-83
2022/01/27 09:19:27;;;;;;;31.20;15.40;;;;;;;2.04;100.00;99924.91;5012820;28;20272;-83
2022/01/27 09:21:56;;;;;;;30.73;16.17;;;;;;;1.99;100.00;99914.50;5008692;28;20206;-82
2022/01/27 09:24:29;;;;;;;30.90;15.30;;;;;;;2.10;100.00;99924.78;5008726;28;20206;-83
2022/01/27 09:27:09;;;;;;;33.10;15.23;;;;;;;2.15;100.00;99909.91;5028259;28;20283;-83
2022/01/27 09:29:37;;;;;;;33.67;15.43;;;;;;;2.10;100.00;99908.25;5087602;28;20240;-83
2022/01/27 09:32:09;;;;;;;31.20;14.40;;;;;;;2.04;100.00;99898.78;5090277;28;20196;-83
2022/01/27 09:34:38;;;;;;;32.47;14.97;;;;;;;1.97;100.00;99911.06;5093515;28;20705;-83
2022/01/27 09:37:07;;;;;;;31.33;15.17;;;;;;;2.03;100.00;99909.22;5087894;28;20270;-82
2022/01/27 09:39:36;;;;;;;31.17;15.10;;;;;;;2.11;100.00;99921.28;5006698;28;20191;-83
2022/01/27 09:42:06;;;;;;;60.83;32.17;;;;;;;2.25;100.00;99921.91;5004161;28;20195;-83
2022/01/27 09:44:36;;;;;;;33.17;16.13;;;;;;;2.20;100.00;99928.94;5005422;28;20206;-83
2022/01/27 09:47:13;;;;;;;34.90;15.23;;;;;;;2.20;100.00;99917.63;5010007;28;20274;-84
2022/01/27 09:49:49;;;;;;;31.03;14.20;;;;;;;2.23;100.00;99928.91;5007644;28;20214;-84
2022/01/27 09:52:18;;;;;;;42.93;22.73;;;;;;;2.28;100.00;99921.84;5010468;28;20225;-84
2022/01/27 09:54:47;;;;;;;34.00;15.47;;;;;;;2.30;100.00;99919.19;4934268;29;20225;-84
2022/01/27 09:57:16;;;;;;;29.20;14.10;;;;;;;2.32;100.00;99922.66;4947129;28;20257;-83
2022/01/27 09:59:46;;;;;;;30.60;15.03;;;;;;;2.37;100.00;99919.94;5012507;28;20242;-83
2022/01/27 10:02:21;;;;;;;38.27;15.43;;;;;;;2.38;100.00;99917.31;4990188;28;20218;-84
2022/01/27 10:04:52;;;;;;;29.90;15.00;;;;;;;2.45;100.00;99912.84;5001330;28;20197;-84
2022/01/27 10:07:23;;;;;;;29.53;14.40;;;;;;;2.46;100.00;99919.78;5032145;28;20279;-84
2022/01/27 10:09:59;;;;;;;31.83;15.43;;;;;;;2.48;100.00;99920.59;5027935;28;20202;-83
2022/01/27 10:12:30;;;;;;;33.57;16.10;;;;;;;2.63;100.00;99907.25;5044757;28;20241;-84
2022/01/27 10:15:11;;;;;;;30.67;14.57;;;;;;;2.51;100.00;99904.84;5086354;28;20208;-84
2022/01/27 10:18:09;;;;;;;29.77;15.20;;;;;;;2.51;100.00;99902.25;5093476;28;20200;-84
2022/01/27 10:20:39;;;;;;;30.77;14.73;;;;;;;2.56;100.00;99898.66;5095477;28;20252;-83
2022/01/27 10:23:18;;;;;;;31.20;14.80;;;;;;;2.64;100.00;99906.34;5096042;28;20204;-84
2022/01/27 10:25:51;;;;;;;29.53;15.37;;;;;;;2.78;100.00;99904.31;5099043;28;20191;-83
2022/01/27 10:28:35;;;;;;;30.47;14.10;;;;;;;2.80;100.00;99893.84;5095722;28;20203;-84
2022/01/27 10:31:07;;;;;;;31.67;15.13;;;;;;;2.81;100.00;99885.97;5092852;28;20450;-84
2022/01/27 10:33:58;;;;;;;36.20;17.43;;;;;;;2.98;100.00;99884.72;5096059;28;20216;-84
2022/01/27 10:36:29;;;;;;;27.30;15.10;;;;;;;2.99;100.00;99891.66;5088105;28;20207;-83
2022/01/27 10:38:59;;;;;;;27.90;15.20;;;;;;;2.94;100.00;99893.53;5098570;28;20188;-84
2022/01/27 10:41:30;;;;;;;28.43;14.43;;;;;;;2.98;100.00;99897.81;5095546;28;20200;-84
2022/01/27 10:44:12;;;;;;;29.77;15.00;;;;;;;3.12;100.00;99904.47;5096389;28;20199;-84
2022/01/27 10:46:47;;;;;;;26.63;14.23;;;;;;;3.25;100.00;99898.97;5096095;28;20222;-84
2022/01/27 10:49:26;;;;;;;26.50;14.53;;;;;;;3.24;100.00;99902.47;5053363;28;20203;-84
2022/01/27 10:51:56;;;;;;;28.10;14.20;;;;;;;3.35;100.00;99906.56;5050833;28;20199;-83
2022/01/27 10:54:35;;;;;;;29.67;15.23;;;;;;;3.20;100.00;99890.38;5047519;28;20227;-84
2022/01/27 10:57:06;;;;;;;24.07;13.43;;;;;;;3.32;100.00;99883.09;5050934;28;20193;-83
2022/01/27 10:59:38;;;;;;;27.47;14.63;;;;;;;3.35;100.00;99900.47;5054476;28;20235;-83
2022/01/27 11:02:14;;;;;;;28.27;14.67;;;;;;;3.51;100.00;99893.16;5046243;28;20224;-83
2022/01/27 11:04:45;;;;;;;26.97;13.90;;;;;;;3.58;100.00;99885.13;5052080;28;20279;-84
2022/01/27 11:07:20;;;;;;;25.33;13.60;;;;;;;3.71;100.00;99893.53;5054588;28;20212;-83
2022/01/27 11:09:49;;;;;;;27.13;14.07;;;;;;;3.73;100.00;99883.88;5048840;28;20295;-83
2022/01/27 11:12:18;;;;;;;26.00;13.60;;;;;;;3.82;100.00;99874.91;5046439;28;20201;-83
2022/01/27 11:14:51;;;;;;;27.13;14.27;;;;;;;3.72;100.00;99882.16;5091634;28;20208;-84
2022/01/27 11:17:24;;;;;;;26.70;14.20;;;;;;;3.80;100.00;99861.88;5061233;28;20706;-84
2022/01/27 11:20:21;;;;;;;27.97;14.77;;;;;;;3.68;100.00;99870.03;5094396;28;20279;-84
2022/01/27 11:23:45;;;;;;;26.67;14.97;;;;;;;3.56;100.00;99868.53;5098080;28;20695;-84
2022/01/27 11:26:16;;;;;;;30.17;14.43;;;;;;;3.47;100.00;99866.16;5061593;28;20203;-85
2022/01/27 11:28:48;;;;;;;26.43;14.03;;;;;;;3.36;100.00;99850.69;5090110;28;20196;-84
2022/01/27 11:31:27;;;;;;;29.93;13.93;;;;;;;3.31;100.00;99849.09;5089041;28;20196;-84
2022/01/27 11:34:07;;;;;;;27.13;13.97;;;;;;;3.29;100.00;99861.38;5090980;28;20248;-84
2022/01/27 11:36:59;;;;;;;26.13;14.20;;;;;;;3.20;100.00;99841.50;5096004;28;20199;-83
2022/01/27 11:39:49;;;;;;;28.87;14.10;;;;;;;3.20;100.00;99846.72;5006634;28;20203;-84
2022/01/27 11:42:22;;;;;;;30.10;14.00;;;;;;;3.22;100.00;99833.59;5012047;28;20194;-84
2022/01/27 11:44:51;;;;;;;28.83;15.03;;;;;;;3.08;100.00;99826.91;5013113;28;20198;-83
2022/01/27 11:47:49;;;;;;;27.07;13.77;;;;;;;3.22;100.00;99823.13;4956854;28;20243;-83
2022/01/27 11:50:32;;;;;;;27.17;14.33;;;;;;;3.23;100.00;99823.09;4950110;28;20204;-83
2022/01/27 11:53:03;;;;;;;29.00;13.97;;;;;;;3.25;100.00;99823.91;4950353;28;20210;-83